createdAt,value
2023-02-20T00:00:16.925Z,2.80
2023-02-20T00:01:19.246Z,2.94
2023-02-20T00:02:22.415Z,3.19
2023-02-20T00:03:24.744Z,2.90
2023-02-20T00:04:27.931Z,3.08
2023-02-20T00:05:30.080Z,3.00
2023-02-20T00:06:33.399Z,3.09
2023-02-20T00:07:36.938Z,3.58
2023-02-20T00:08:41.147Z,2.85
2023-02-20T00:09:43.302Z,3.29
2023-02-20T00:10:46.608Z,3.52
2023-02-20T00:11:48.825Z,3.70
2023-02-20T00:12:52.129Z,4.01
2023-02-20T00:13:54.292Z,3.39
2023-02-20T00:14:57.482Z,3.63
2023-02-20T00:15:59.619Z,3.56
2023-02-20T00:17:02.828Z,3.50
2023-02-20T00:18:05.034Z,3.60
2023-02-20T00:19:08.128Z,3.22
2023-02-20T00:20:11.217Z,3.24
2023-02-20T00:21:14.685Z,3.15
2023-02-20T00:22:16.852Z,3.42
2023-02-20T00:23:21.435Z,3.87
2023-02-20T00:24:23.553Z,3.30
2023-02-20T00:25:26.808Z,2.97
2023-02-20T00:26:28.891Z,3.63
2023-02-20T00:27:32.122Z,3.62
2023-02-20T00:28:34.275Z,3.73
2023-02-20T00:29:37.907Z,3.77
2023-02-20T00:30:40.102Z,4.30
2023-02-20T00:31:43.277Z,3.85
2023-02-20T00:32:46.492Z,4.04
2023-02-20T00:33:49.671Z,3.75
2023-02-20T00:34:52.178Z,3.46
2023-02-20T00:35:55.311Z,3.81
2023-02-20T00:36:57.538Z,4.31
2023-02-20T00:38:00.745Z,3.72
2023-02-20T00:39:04.331Z,3.82
2023-02-20T00:40:09.892Z,4.21
2023-02-20T00:41:14.157Z,4.22
2023-02-20T00:42:17.281Z,4.35
2023-02-20T00:43:19.543Z,4.44
2023-02-20T00:44:22.813Z,4.37
2023-02-20T00:45:25.003Z,4.49
2023-02-20T00:46:28.101Z,4.34
2023-02-20T00:47:30.246Z,4.43
2023-02-20T00:48:33.382Z,4.20
2023-02-20T00:49:35.561Z,4.56
2023-02-20T00:50:38.689Z,4.38
2023-02-20T00:51:40.882Z,3.97
2023-02-20T00:52:44.064Z,3.92
2023-02-20T00:53:46.254Z,4.07
2023-02-20T00:54:50.894Z,4.03
2023-02-20T00:55:53.107Z,3.50
2023-02-20T00:56:56.288Z,3.38
2023-02-20T00:57:58.488Z,3.91
2023-02-20T00:59:01.649Z,3.99
2023-02-20T01:00:05.174Z,3.53
2023-02-20T01:01:08.910Z,3.68
2023-02-20T01:02:11.356Z,4.12
2023-02-20T01:03:14.467Z,3.57
2023-02-20T01:04:16.788Z,3.56
2023-02-20T01:05:20.084Z,3.52
2023-02-20T01:06:22.348Z,3.55
2023-02-20T01:07:25.488Z,3.43
2023-02-20T01:08:27.674Z,3.62
2023-02-20T01:09:30.865Z,2.92
2023-02-20T01:10:34.360Z,3.18
2023-02-20T01:11:37.536Z,2.96
2023-02-20T01:12:40.246Z,3.19
2023-02-20T01:13:43.460Z,3.01
2023-02-20T01:14:45.619Z,2.92
2023-02-20T01:15:48.818Z,2.61
2023-02-20T01:16:53.610Z,2.58
2023-02-20T01:17:57.125Z,2.74
2023-02-20T01:18:59.264Z,2.33
2023-02-20T01:20:02.474Z,2.20
2023-02-20T01:21:05.056Z,2.28
2023-02-20T01:22:08.939Z,2.40
2023-02-20T01:23:11.446Z,2.07
2023-02-20T01:24:14.690Z,2.18
2023-02-20T01:25:17.162Z,1.72
2023-02-20T01:26:21.623Z,1.52
2023-02-20T01:27:23.773Z,2.07
2023-02-20T01:28:26.944Z,1.95
2023-02-20T01:29:29.050Z,2.20
2023-02-20T01:30:32.198Z,1.99
2023-02-20T01:31:34.650Z,1.57
2023-02-20T01:32:38.276Z,1.71
2023-02-20T01:33:41.966Z,1.80
2023-02-20T01:34:45.153Z,1.68
2023-02-20T01:35:47.287Z,1.70
2023-02-20T01:36:52.309Z,1.54
2023-02-20T01:37:54.490Z,1.74
2023-02-20T01:38:58.363Z,2.02
2023-02-20T01:40:00.768Z,2.15
2023-02-20T01:41:04.421Z,2.04
2023-02-20T01:42:13.684Z,2.20
2023-02-20T01:43:17.627Z,1.77
2023-02-20T01:44:22.695Z,1.79
2023-02-20T01:45:34.553Z,1.82
2023-02-20T01:46:58.242Z,1.82
2023-02-20T01:48:01.550Z,1.62
2023-02-20T01:49:09.803Z,1.60
2023-02-20T01:50:15.178Z,1.41
2023-02-20T01:51:17.821Z,1.80
2023-02-20T01:52:25.625Z,1.80
2023-02-20T01:53:31.552Z,1.50
2023-02-20T01:54:37.657Z,1.57
2023-02-20T01:55:45.753Z,1.24
2023-02-20T01:56:50.894Z,1.30
2023-02-20T01:58:01.696Z,1.03
2023-02-20T01:59:08.389Z,1.31
2023-02-20T02:00:16.218Z,1.57
2023-02-20T02:01:18.863Z,1.05
2023-02-20T02:02:24.497Z,1.82
2023-02-20T02:03:31.830Z,1.70
2023-02-20T02:04:38.007Z,1.75
2023-02-20T02:05:45.499Z,1.85
2023-02-20T02:06:52.300Z,1.86
2023-02-20T02:07:56.430Z,1.78
2023-02-20T02:09:09.227Z,1.81
2023-02-20T02:10:17.010Z,1.31
2023-02-20T02:11:23.020Z,1.27
2023-02-20T02:12:26.573Z,1.55
2023-02-20T02:13:30.235Z,1.91
2023-02-20T02:14:33.558Z,2.13
2023-02-20T02:15:35.809Z,1.91
2023-02-20T02:16:51.658Z,1.80
2023-02-20T02:18:19.386Z,2.38
2023-02-20T02:19:49.767Z,2.38
2023-02-20T02:21:33.915Z,1.85
2023-02-20T02:23:05.206Z,1.70
2023-02-20T02:24:47.091Z,1.66
2023-02-20T02:25:59.572Z,1.60
2023-02-20T02:27:29.085Z,1.88
2023-02-20T02:29:02.412Z,1.56
2023-02-20T02:30:36.095Z,1.89
2023-02-20T02:32:09.800Z,1.59
2023-02-20T02:33:48.200Z,1.58
2023-02-20T02:35:18.113Z,1.46
2023-02-20T02:36:37.772Z,1.27
2023-02-20T02:37:50.525Z,1.60
2023-02-20T02:39:02.849Z,1.79
2023-02-20T02:40:14.694Z,2.02
2023-02-20T02:41:26.220Z,1.82
2023-02-20T02:42:42.156Z,1.98
2023-02-20T02:43:55.060Z,2.11
2023-02-20T02:45:06.838Z,1.80
2023-02-20T02:46:15.296Z,2.07
2023-02-20T02:47:28.215Z,1.54
2023-02-20T02:48:37.977Z,2.11
2023-02-20T02:49:52.379Z,2.06
2023-02-20T02:51:01.506Z,2.72
2023-02-20T02:52:09.315Z,2.71
2023-02-20T02:53:13.907Z,2.75
2023-02-20T02:54:19.882Z,2.94
2023-02-20T02:55:24.757Z,2.95
2023-02-20T02:56:35.505Z,3.24
2023-02-20T02:57:37.613Z,3.19
2023-02-20T02:58:40.715Z,2.95
2023-02-20T02:59:44.958Z,3.09
2023-02-20T03:00:58.119Z,3.20
2023-02-20T03:02:05.704Z,3.34
2023-02-20T03:03:14.395Z,3.46
2023-02-20T03:04:23.231Z,3.51
2023-02-20T03:05:40.220Z,3.75
2023-02-20T03:06:46.877Z,3.87
2023-02-20T03:07:57.966Z,3.99
2023-02-20T03:09:04.039Z,4.16
2023-02-20T03:10:11.674Z,3.96
2023-02-20T03:11:16.948Z,3.78
2023-02-20T03:12:22.952Z,4.48
2023-02-20T03:13:48.933Z,4.13
2023-02-20T03:15:17.614Z,4.31
2023-02-20T03:16:29.072Z,4.24
2023-02-20T03:17:36.933Z,4.45
2023-02-20T03:18:42.080Z,5.18
2023-02-20T03:19:50.093Z,5.28
2023-02-20T03:20:58.790Z,5.59
2023-02-20T03:22:06.765Z,5.69
2023-02-20T03:23:14.321Z,6.08
2023-02-20T03:24:23.375Z,6.11
2023-02-20T03:25:32.011Z,5.97
2023-02-20T03:26:39.295Z,5.92
2023-02-20T03:27:48.091Z,6.08
2023-02-20T03:28:57.918Z,6.46
2023-02-20T03:30:01.415Z,6.81
2023-02-20T03:31:10.002Z,6.96
2023-02-20T03:32:34.597Z,6.89
2023-02-20T03:34:01.337Z,7.37
2023-02-20T03:35:24.544Z,7.49
2023-02-20T03:36:52.501Z,7.77
2023-02-20T03:38:14.635Z,8.11
2023-02-20T03:39:42.291Z,7.65
2023-02-20T03:41:03.427Z,8.36
2023-02-20T03:42:28.832Z,8.38
2023-02-20T03:43:35.896Z,7.77
2023-02-20T03:44:38.787Z,8.98
2023-02-20T03:45:44.900Z,8.05
2023-02-20T03:46:50.559Z,8.61
2023-02-20T03:48:00.286Z,8.35
2023-02-20T03:49:08.062Z,9.39
2023-02-20T03:50:14.543Z,8.41
2023-02-20T03:51:35.913Z,8.80
2023-02-20T03:52:39.216Z,9.35
2023-02-20T03:53:44.612Z,9.18
2023-02-20T03:54:50.312Z,8.93
2023-02-20T03:55:57.558Z,9.08
2023-02-20T03:57:06.621Z,8.94
2023-02-20T03:58:13.978Z,9.38
2023-02-20T03:59:23.382Z,10.59
2023-02-20T04:00:31.608Z,9.19
2023-02-20T04:01:37.984Z,9.64
2023-02-20T04:02:44.047Z,9.69
2023-02-20T04:03:51.592Z,10.15
2023-02-20T04:05:00.942Z,10.03
2023-02-20T04:06:07.079Z,10.47
2023-02-20T04:07:17.043Z,10.46
2023-02-20T04:08:24.247Z,10.55
2023-02-20T04:09:34.438Z,10.88
2023-02-20T04:10:43.868Z,10.34
2023-02-20T04:11:53.656Z,10.49
2023-02-20T04:12:58.391Z,10.81
2023-02-20T04:14:03.527Z,11.03
2023-02-20T04:15:09.010Z,10.37
2023-02-20T04:16:14.368Z,9.94
2023-02-20T04:17:24.297Z,11.11
2023-02-20T04:18:28.588Z,11.58
2023-02-20T04:19:31.017Z,11.12
2023-02-20T04:20:34.322Z,9.99
2023-02-20T04:21:42.330Z,9.90
2023-02-20T04:22:49.776Z,10.42
2023-02-20T04:24:04.360Z,10.01
2023-02-20T04:25:15.916Z,11.22
2023-02-20T04:26:24.384Z,10.46
2023-02-20T04:27:26.601Z,10.80
2023-02-20T04:28:30.692Z,10.32
2023-02-20T04:29:33.358Z,10.76
2023-02-20T04:30:36.873Z,10.64
2023-02-20T04:31:39.375Z,10.76
2023-02-20T04:32:42.524Z,11.17
2023-02-20T04:33:44.744Z,10.96
2023-02-20T04:34:48.304Z,10.71
2023-02-20T04:35:50.693Z,11.07
2023-02-20T04:37:07.107Z,10.45
2023-02-20T04:38:10.323Z,10.53
2023-02-20T04:39:13.710Z,10.21
2023-02-20T04:40:20.350Z,11.01
2023-02-20T04:41:24.835Z,10.49
2023-02-20T04:42:27.027Z,10.56
2023-02-20T04:43:30.171Z,10.29
2023-02-20T04:44:32.366Z,10.68
2023-02-20T04:45:35.435Z,11.33
2023-02-20T04:46:37.581Z,10.94
2023-02-20T04:47:41.004Z,11.53
2023-02-20T04:48:43.232Z,10.36
2023-02-20T04:49:46.459Z,10.60
2023-02-20T04:50:48.603Z,11.87
2023-02-20T04:51:51.759Z,10.80
2023-02-20T04:52:54.409Z,10.75
2023-02-20T04:53:57.752Z,10.99
2023-02-20T04:54:59.858Z,11.14
2023-02-20T04:56:02.947Z,10.34
2023-02-20T04:57:06.717Z,11.15
2023-02-20T04:58:10.172Z,11.22
2023-02-20T04:59:12.336Z,11.50
2023-02-20T05:00:17.506Z,11.19
2023-02-20T05:01:19.737Z,11.13
2023-02-20T05:02:22.891Z,11.54
2023-02-20T05:03:25.569Z,10.98
2023-02-20T05:04:29.153Z,11.07
2023-02-20T05:05:31.337Z,10.77
2023-02-20T05:06:34.431Z,10.45
2023-02-20T05:07:37.121Z,11.31
2023-02-20T05:08:40.234Z,11.20
2023-02-20T05:09:44.517Z,11.07
2023-02-20T05:10:48.067Z,11.67
2023-02-20T05:11:50.443Z,11.76
2023-02-20T05:12:56.412Z,11.47
2023-02-20T05:13:58.498Z,11.82
2023-02-20T05:15:01.648Z,12.00
2023-02-20T05:16:03.992Z,11.92
2023-02-20T05:17:07.168Z,11.50
2023-02-20T05:18:09.496Z,11.03
2023-02-20T05:19:13.422Z,10.85
2023-02-20T05:20:17.113Z,11.51
2023-02-20T05:21:37.666Z,11.97
2023-02-20T05:22:40.827Z,11.32
2023-02-20T05:23:43.299Z,11.47
2023-02-20T05:24:47.216Z,11.10
2023-02-20T05:25:49.318Z,11.09
2023-02-20T05:26:54.230Z,11.30
2023-02-20T05:27:58.659Z,11.67
2023-02-20T05:29:01.777Z,11.16
2023-02-20T05:30:05.433Z,10.89
2023-02-20T05:31:08.959Z,11.49
2023-02-20T05:32:11.121Z,10.49
2023-02-20T05:33:14.313Z,10.50
2023-02-20T05:34:16.497Z,10.22
2023-02-20T05:35:19.627Z,10.60
2023-02-20T05:36:21.837Z,11.67
2023-02-20T05:37:26.997Z,11.10
2023-02-20T05:38:29.094Z,11.11
2023-02-20T05:39:32.528Z,10.45
2023-02-20T05:40:34.628Z,11.03
2023-02-20T05:41:38.235Z,10.98
2023-02-20T05:42:42.246Z,9.38
2023-02-20T05:43:48.283Z,11.03
2023-02-20T05:44:50.376Z,10.98
2023-02-20T05:45:53.616Z,11.03
2023-02-20T05:46:55.697Z,10.20
2023-02-20T05:47:58.817Z,11.24
2023-02-20T05:49:00.893Z,11.00
2023-02-20T05:50:04.184Z,10.56
2023-02-20T05:51:06.549Z,10.80
2023-02-20T05:52:12.429Z,9.91
2023-02-20T05:53:14.554Z,11.20
2023-02-20T05:54:18.035Z,10.55
2023-02-20T05:55:20.155Z,10.38
2023-02-20T05:56:23.548Z,10.53
2023-02-20T05:57:25.678Z,10.34
2023-02-20T05:58:28.788Z,9.45
2023-02-20T05:59:32.357Z,9.17
2023-02-20T06:00:35.466Z,9.34
2023-02-20T06:01:37.686Z,10.76
2023-02-20T06:02:40.816Z,9.99
2023-02-20T06:03:42.949Z,9.73
2023-02-20T06:04:46.048Z,9.94
2023-02-20T06:05:48.193Z,9.37
2023-02-20T06:06:51.507Z,9.73
2023-02-20T06:07:53.764Z,9.90
2023-02-20T06:08:56.880Z,9.55
2023-02-20T06:09:59.036Z,9.73
2023-02-20T06:11:02.131Z,9.13
2023-02-20T06:12:05.740Z,8.63
2023-02-20T06:13:07.838Z,9.58
2023-02-20T06:14:10.885Z,9.48
2023-02-20T06:15:15.388Z,9.73
2023-02-20T06:16:23.685Z,9.76
2023-02-20T06:17:27.496Z,9.68
2023-02-20T06:18:29.615Z,8.67
2023-02-20T06:19:32.822Z,8.91
2023-02-20T06:20:35.184Z,8.56
2023-02-20T06:21:40.189Z,8.12
2023-02-20T06:22:42.270Z,8.83
2023-02-20T06:23:46.411Z,8.30
2023-02-20T06:24:49.604Z,7.60
2023-02-20T06:25:51.676Z,7.85
2023-02-20T06:26:55.494Z,7.93
2023-02-20T06:27:57.682Z,8.13
2023-02-20T06:29:00.782Z,8.65
2023-02-20T06:30:03.099Z,7.72
2023-02-20T06:31:08.450Z,7.65
2023-02-20T06:32:11.979Z,8.11
2023-02-20T06:33:14.063Z,7.74
2023-02-20T06:34:18.064Z,7.79
2023-02-20T06:35:20.184Z,7.72
2023-02-20T06:36:26.177Z,7.51
2023-02-20T06:37:28.300Z,7.80
2023-02-20T06:38:31.747Z,7.61
2023-02-20T06:39:33.949Z,7.45
2023-02-20T06:40:37.085Z,7.25
2023-02-20T06:41:39.211Z,7.75
2023-02-20T06:42:42.504Z,7.61
2023-02-20T06:43:44.640Z,7.43
2023-02-20T06:44:47.800Z,7.80
2023-02-20T06:45:49.953Z,7.36
2023-02-20T06:46:54.503Z,7.37
2023-02-20T06:47:56.986Z,7.63
2023-02-20T06:49:00.909Z,7.61
2023-02-20T06:50:04.380Z,7.23
2023-02-20T06:51:06.506Z,6.69
2023-02-20T06:52:10.243Z,6.46
2023-02-20T06:53:13.447Z,7.30
2023-02-20T06:54:15.565Z,7.02
2023-02-20T06:55:18.719Z,7.28
2023-02-20T06:56:24.155Z,7.58
2023-02-20T06:57:27.232Z,8.16
2023-02-20T06:58:29.279Z,7.71
2023-02-20T06:59:33.034Z,7.29
2023-02-20T07:00:36.127Z,7.12
2023-02-20T07:01:40.220Z,7.19
2023-02-20T07:02:44.763Z,7.81
2023-02-20T07:03:48.762Z,8.14
2023-02-20T07:04:51.925Z,8.19
2023-02-20T07:05:54.271Z,8.52
2023-02-20T07:06:57.411Z,7.45
2023-02-20T07:07:59.542Z,7.26
2023-02-20T07:09:02.625Z,7.48
2023-02-20T07:10:06.244Z,7.45
2023-02-20T07:11:09.696Z,7.40
2023-02-20T07:12:12.251Z,7.29
2023-02-20T07:13:15.387Z,7.98
2023-02-20T07:14:17.644Z,8.65
2023-02-20T07:15:20.743Z,7.62
2023-02-20T07:16:23.938Z,7.99
2023-02-20T07:17:26.472Z,8.12
2023-02-20T07:18:30.989Z,7.86
2023-02-20T07:19:33.172Z,8.61
2023-02-20T07:20:36.311Z,8.54
2023-02-20T07:21:38.549Z,8.79
2023-02-20T07:22:50.013Z,8.45
2023-02-20T07:23:53.440Z,8.55
2023-02-20T07:24:57.251Z,8.76
2023-02-20T07:25:59.378Z,9.27
2023-02-20T07:27:02.762Z,9.02
2023-02-20T07:28:05.289Z,9.38
2023-02-20T07:29:09.286Z,9.52
2023-02-20T07:30:12.643Z,9.66
2023-02-20T07:31:16.316Z,9.66
2023-02-20T07:32:20.756Z,9.66
2023-02-20T07:33:23.987Z,9.40
2023-02-20T07:34:27.534Z,8.88
2023-02-20T07:35:30.687Z,9.49
2023-02-20T07:36:32.925Z,9.42
2023-02-20T07:37:36.066Z,9.29
2023-02-20T07:38:38.267Z,9.03
2023-02-20T07:39:41.424Z,9.07
2023-02-20T07:40:43.799Z,9.24
2023-02-20T07:41:47.323Z,9.06
2023-02-20T07:42:50.462Z,9.71
2023-02-20T07:43:53.682Z,9.62
2023-02-20T07:44:55.814Z,9.60
2023-02-20T07:45:59.267Z,9.44
2023-02-20T07:47:01.498Z,9.60
2023-02-20T07:48:04.743Z,9.39
2023-02-20T07:49:06.914Z,9.37
2023-02-20T07:50:11.827Z,10.15
2023-02-20T07:51:14.942Z,9.85
2023-02-20T07:52:18.045Z,9.19
2023-02-20T07:53:22.625Z,8.93
2023-02-20T07:54:24.772Z,8.42
2023-02-20T07:55:27.923Z,9.19
2023-02-20T07:56:30.763Z,8.81
2023-02-20T07:57:36.901Z,8.27
2023-02-20T07:58:40.014Z,8.13
2023-02-20T07:59:42.302Z,8.92
2023-02-20T08:00:45.792Z,8.61
2023-02-20T08:01:49.015Z,8.93
2023-02-20T08:02:51.175Z,8.54
2023-02-20T08:03:54.316Z,8.45
2023-02-20T08:04:56.455Z,8.27
2023-02-20T08:06:01.142Z,7.63
2023-02-20T08:07:03.640Z,7.91
2023-02-20T08:08:07.051Z,7.65
2023-02-20T08:09:10.183Z,7.63
2023-02-20T08:10:13.318Z,7.74
2023-02-20T08:11:16.473Z,7.51
2023-02-20T08:12:18.704Z,7.01
2023-02-20T08:13:21.848Z,7.11
2023-02-20T08:14:24.971Z,7.09
2023-02-20T08:15:28.226Z,7.25
2023-02-20T08:16:30.664Z,7.21
2023-02-20T08:17:45.565Z,7.21
2023-02-20T08:18:50.166Z,7.40
2023-02-20T08:19:52.329Z,7.51
2023-02-20T08:20:55.452Z,6.74
2023-02-20T08:21:58.947Z,7.11
2023-02-20T08:23:02.127Z,6.64
2023-02-20T08:24:06.519Z,6.67
2023-02-20T08:25:08.726Z,6.60
2023-02-20T08:26:12.962Z,6.30
2023-02-20T08:27:15.319Z,6.21
2023-02-20T08:28:18.519Z,6.88
2023-02-20T08:29:21.622Z,6.49
2023-02-20T08:30:26.274Z,6.22
2023-02-20T08:31:32.914Z,6.48
2023-02-20T08:32:35.425Z,6.57
2023-02-20T08:33:38.604Z,5.96
2023-02-20T08:34:42.270Z,6.24
2023-02-20T08:35:44.641Z,6.24
2023-02-20T08:36:47.789Z,5.97
2023-02-20T08:37:51.475Z,6.23
2023-02-20T08:38:54.955Z,6.12
2023-02-20T08:39:57.108Z,5.93
2023-02-20T08:41:00.541Z,5.82
2023-02-20T08:42:04.040Z,5.87
2023-02-20T08:43:06.125Z,5.61
2023-02-20T08:44:09.591Z,5.81
2023-02-20T08:45:14.010Z,5.87
2023-02-20T08:46:17.484Z,6.65
2023-02-20T08:47:20.215Z,5.77
2023-02-20T08:48:23.359Z,5.10
2023-02-20T08:49:27.169Z,5.33
2023-02-20T08:50:30.431Z,5.62
2023-02-20T08:51:32.824Z,5.60
2023-02-20T08:52:35.940Z,5.64
2023-02-20T08:53:40.787Z,5.51
2023-02-20T08:54:48.827Z,5.40
2023-02-20T08:55:52.805Z,5.03
2023-02-20T08:56:54.893Z,5.48
2023-02-20T08:57:58.012Z,5.35
2023-02-20T08:59:00.195Z,5.43
2023-02-20T09:00:03.417Z,4.90
2023-02-20T09:01:06.681Z,5.22
2023-02-20T09:02:18.211Z,4.85
2023-02-20T09:03:21.308Z,5.40
2023-02-20T09:04:24.528Z,5.11
2023-02-20T09:05:27.945Z,4.68
2023-02-20T09:06:31.102Z,4.98
2023-02-20T09:07:33.231Z,4.91
2023-02-20T09:08:36.500Z,5.02
2023-02-20T09:09:40.212Z,5.02
2023-02-20T09:10:43.835Z,4.47
2023-02-20T09:11:47.035Z,4.46
2023-02-20T09:12:49.270Z,4.46
2023-02-20T09:13:52.405Z,4.46
2023-02-20T09:14:54.514Z,4.74
2023-02-20T09:15:57.649Z,4.23
2023-02-20T09:16:59.847Z,4.21
2023-02-20T09:18:03.305Z,4.88
2023-02-20T09:19:07.373Z,4.54
2023-02-20T09:20:11.444Z,4.85
2023-02-20T09:21:16.733Z,4.68
2023-02-20T09:22:23.479Z,4.98
2023-02-20T09:23:27.209Z,4.57
2023-02-20T09:24:34.087Z,4.44
2023-02-20T09:25:38.980Z,4.43
2023-02-20T09:26:41.164Z,4.23
2023-02-20T09:27:44.493Z,4.63
2023-02-20T09:28:46.653Z,4.37
2023-02-20T09:29:49.839Z,4.22
2023-02-20T09:30:54.824Z,4.77
2023-02-20T09:31:57.982Z,3.99
2023-02-20T09:33:00.338Z,3.82
2023-02-20T09:34:04.234Z,4.21
2023-02-20T09:35:07.653Z,4.29
2023-02-20T09:36:11.586Z,4.56
2023-02-20T09:37:15.141Z,4.76
2023-02-20T09:38:17.544Z,5.60
2023-02-20T09:39:20.759Z,5.06
2023-02-20T09:40:25.436Z,4.31
2023-02-20T09:41:55.155Z,4.03
2023-02-20T09:43:25.054Z,3.97
2023-02-20T09:44:39.911Z,3.77
2023-02-20T09:45:52.294Z,3.66
2023-02-20T09:47:03.364Z,3.66
2023-02-20T09:48:21.876Z,3.83
2023-02-20T09:49:34.047Z,3.77
2023-02-20T09:50:43.326Z,3.63
2023-02-20T09:51:53.788Z,3.67
2023-02-20T09:53:03.400Z,3.57
2023-02-20T09:54:11.762Z,3.39
2023-02-20T09:55:22.205Z,3.26
2023-02-20T09:56:30.858Z,3.40
2023-02-20T09:57:39.496Z,4.09
2023-02-20T09:58:47.828Z,3.61
2023-02-20T09:59:55.385Z,3.22
2023-02-20T10:01:02.625Z,2.83
2023-02-20T10:02:17.282Z,2.99
2023-02-20T10:03:33.114Z,3.32
2023-02-20T10:04:52.305Z,3.24
2023-02-20T10:06:05.028Z,3.19
2023-02-20T10:07:23.152Z,3.07
2023-02-20T10:08:26.675Z,2.97
2023-02-20T10:09:29.750Z,3.16
2023-02-20T10:10:38.966Z,3.08
2023-02-20T10:12:00.707Z,3.09
2023-02-20T10:13:19.813Z,2.96
2023-02-20T10:14:58.733Z,3.02
2023-02-20T10:16:14.663Z,2.71
2023-02-20T10:17:29.516Z,2.72
2023-02-20T10:18:46.104Z,2.85
2023-02-20T10:19:56.118Z,2.98
2023-02-20T10:21:04.620Z,2.93
2023-02-20T10:22:15.477Z,3.03
2023-02-20T10:23:31.906Z,2.86
2023-02-20T10:24:49.461Z,3.14
2023-02-20T10:25:57.487Z,3.27
2023-02-20T10:27:14.183Z,3.04
2023-02-20T10:28:22.124Z,2.85
2023-02-20T10:29:28.563Z,2.71
2023-02-20T10:30:36.483Z,2.77
2023-02-20T10:31:45.691Z,2.90
2023-02-20T10:32:56.120Z,2.85
2023-02-20T10:34:05.810Z,2.91
2023-02-20T10:35:13.939Z,3.07
2023-02-20T10:36:23.029Z,3.10
2023-02-20T10:37:46.696Z,3.25
2023-02-20T10:38:56.809Z,3.00
2023-02-20T10:40:14.185Z,3.27
2023-02-20T10:41:24.464Z,3.21
2023-02-20T10:42:38.576Z,3.14
2023-02-20T10:43:49.282Z,2.94
2023-02-20T10:44:58.647Z,2.83
2023-02-20T10:46:12.911Z,2.78
2023-02-20T10:47:24.705Z,2.65
2023-02-20T10:48:32.597Z,2.72
2023-02-20T10:49:45.002Z,2.79
2023-02-20T10:50:55.485Z,2.84
2023-02-20T10:52:03.482Z,2.63
2023-02-20T10:53:19.214Z,2.50
2023-02-20T10:54:30.307Z,2.50
2023-02-20T10:55:41.915Z,2.91
2023-02-20T10:56:54.024Z,2.88
2023-02-20T10:58:03.663Z,3.09
2023-02-20T10:59:17.661Z,2.69
2023-02-20T11:00:27.711Z,2.54
2023-02-20T11:01:32.170Z,2.78
2023-02-20T11:02:40.113Z,2.89
2023-02-20T11:03:51.108Z,2.75
2023-02-20T11:04:59.220Z,2.94
2023-02-20T11:06:07.437Z,3.06
2023-02-20T11:07:15.441Z,2.66
2023-02-20T11:08:21.031Z,2.84
2023-02-20T11:09:25.516Z,2.43
2023-02-20T11:10:28.675Z,2.76
2023-02-20T11:11:35.137Z,2.73
2023-02-20T11:12:46.226Z,2.69
2023-02-20T11:13:48.405Z,2.51
2023-02-20T11:14:57.043Z,2.50
2023-02-20T11:15:59.700Z,2.29
2023-02-20T11:17:09.020Z,3.07
2023-02-20T11:18:26.046Z,2.71
2023-02-20T11:19:38.088Z,2.47
2023-02-20T11:20:46.416Z,2.59
2023-02-20T11:21:51.859Z,2.58
2023-02-20T11:22:54.018Z,2.62
2023-02-20T11:23:57.121Z,2.39
2023-02-20T11:25:16.953Z,2.26
2023-02-20T11:26:29.588Z,2.56
2023-02-20T11:27:35.113Z,2.38
2023-02-20T11:28:37.970Z,2.49
2023-02-20T11:29:50.966Z,2.51
2023-02-20T11:31:04.191Z,2.37
2023-02-20T11:32:32.823Z,2.11
2023-02-20T11:33:45.461Z,2.45
2023-02-20T11:34:47.646Z,2.19
2023-02-20T11:35:54.418Z,2.37
2023-02-20T11:37:07.636Z,2.27
2023-02-20T11:38:32.567Z,2.23
2023-02-20T11:39:36.512Z,2.60
2023-02-20T11:40:38.683Z,2.20
2023-02-20T11:41:42.028Z,2.19
2023-02-20T11:42:45.240Z,2.13
2023-02-20T11:44:00.785Z,2.71
2023-02-20T11:45:15.752Z,2.56
2023-02-20T11:46:22.590Z,2.41
2023-02-20T11:47:28.564Z,2.80
2023-02-20T11:48:30.827Z,2.33
2023-02-20T11:49:33.904Z,2.33
2023-02-20T11:50:41.977Z,2.24
2023-02-20T11:51:46.960Z,2.40
2023-02-20T11:52:58.771Z,2.46
2023-02-20T11:54:14.530Z,2.43
2023-02-20T11:55:22.376Z,2.47
2023-02-20T11:56:25.545Z,2.25
2023-02-20T11:57:31.220Z,2.58
2023-02-20T11:58:34.261Z,2.23
2023-02-20T11:59:39.680Z,2.19
2023-02-20T12:00:47.594Z,2.14
2023-02-20T12:02:00.503Z,2.09
2023-02-20T12:03:14.754Z,2.03
2023-02-20T12:04:21.703Z,2.06
2023-02-20T12:05:40.419Z,1.91
2023-02-20T12:06:44.789Z,1.80
2023-02-20T12:07:58.054Z,2.16
2023-02-20T12:09:04.499Z,2.13
2023-02-20T12:10:27.035Z,1.95
2023-02-20T12:11:31.241Z,1.96
2023-02-20T12:12:33.637Z,1.89
2023-02-20T12:13:40.855Z,1.61
2023-02-20T12:14:43.921Z,1.65
2023-02-20T12:15:55.909Z,2.02
2023-02-20T12:17:13.220Z,2.16
2023-02-20T12:18:41.562Z,2.00
2023-02-20T12:19:55.675Z,2.25
2023-02-20T12:21:11.641Z,1.92
2023-02-20T12:22:23.579Z,1.89
2023-02-20T12:23:39.416Z,1.86
2023-02-20T12:25:00.516Z,1.78
2023-02-20T12:26:15.789Z,1.79
2023-02-20T12:27:55.449Z,1.79
2023-02-20T12:29:13.188Z,2.08
2023-02-20T12:30:54.855Z,1.94
2023-02-20T12:32:19.670Z,2.01
2023-02-20T12:33:48.164Z,2.10
2023-02-20T12:35:07.248Z,2.11
2023-02-20T12:36:25.405Z,1.84
2023-02-20T12:37:41.811Z,1.97
2023-02-20T12:38:51.132Z,2.04
2023-02-20T12:40:07.748Z,1.76
2023-02-20T12:41:25.844Z,1.85
2023-02-20T12:42:40.756Z,1.81
2023-02-20T12:43:51.163Z,1.69
2023-02-20T12:45:12.986Z,1.51
2023-02-20T12:46:23.184Z,1.68
2023-02-20T12:47:31.307Z,1.70
2023-02-20T12:48:48.952Z,1.58
2023-02-20T12:50:09.036Z,1.50
2023-02-20T12:51:33.502Z,1.83
2023-02-20T12:52:59.928Z,1.62
2023-02-20T12:54:19.538Z,1.35
2023-02-20T12:55:30.690Z,1.35
2023-02-20T12:56:55.396Z,1.52
2023-02-20T12:58:16.338Z,1.40
2023-02-20T12:59:28.854Z,1.59
2023-02-20T13:00:35.623Z,1.31
2023-02-20T13:01:40.714Z,1.32
2023-02-20T13:02:49.390Z,1.58
2023-02-20T13:04:04.583Z,1.62
2023-02-20T13:05:13.049Z,1.48
2023-02-20T13:06:26.461Z,1.50
2023-02-20T13:07:40.009Z,1.68
2023-02-20T13:09:01.710Z,1.44
2023-02-20T13:10:14.189Z,1.52
2023-02-20T13:11:22.650Z,1.37
2023-02-20T13:12:25.258Z,1.35
2023-02-20T13:13:38.394Z,1.49
2023-02-20T13:15:01.644Z,1.57
2023-02-20T13:16:13.483Z,1.48
2023-02-20T13:17:30.770Z,1.27
2023-02-20T13:18:42.508Z,1.48
2023-02-20T13:19:55.232Z,2.70
2023-02-20T13:21:04.449Z,3.57
2023-02-20T13:22:07.695Z,1.77
2023-02-20T13:23:29.714Z,1.61
2023-02-20T13:24:36.071Z,2.01
2023-02-20T13:25:44.989Z,1.75
2023-02-20T13:26:49.799Z,3.44
2023-02-20T13:28:02.633Z,4.19
2023-02-20T13:29:14.809Z,3.21
2023-02-20T13:30:22.443Z,2.67
2023-02-20T13:31:47.120Z,4.26
2023-02-20T13:32:49.352Z,1.70
2023-02-20T13:34:44.097Z,1.85
2023-02-20T13:35:53.432Z,2.18
2023-02-20T13:36:56.560Z,1.59
2023-02-20T13:38:11.063Z,1.27
2023-02-20T13:39:44.186Z,1.34
2023-02-20T13:41:03.452Z,1.32
2023-02-20T13:42:27.429Z,1.21
2023-02-20T13:43:33.845Z,1.06
2023-02-20T13:44:47.039Z,1.26
2023-02-20T13:46:11.421Z,1.48
2023-02-20T13:47:47.757Z,1.04
2023-02-20T13:48:52.898Z,1.23
2023-02-20T13:49:58.870Z,1.32
2023-02-20T13:51:34.219Z,1.32
2023-02-20T13:52:42.714Z,1.23
2023-02-20T13:53:49.235Z,1.40
2023-02-20T13:54:52.451Z,1.04
2023-02-20T13:55:55.584Z,1.13
2023-02-20T13:57:02.598Z,1.31
2023-02-20T13:58:13.489Z,1.29
2023-02-20T13:59:18.927Z,1.22
2023-02-20T14:00:28.283Z,1.27
2023-02-20T14:01:30.436Z,1.36
2023-02-20T14:02:34.018Z,1.10
2023-02-20T14:03:37.142Z,0.99
2023-02-20T14:04:39.654Z,1.15
2023-02-20T14:05:42.767Z,1.19
2023-02-20T14:06:58.470Z,1.30
2023-02-20T14:08:02.288Z,1.15
2023-02-20T14:09:11.227Z,1.25
2023-02-20T14:10:24.530Z,1.25
2023-02-20T14:11:32.509Z,1.23
2023-02-20T14:12:36.320Z,1.22
2023-02-20T14:13:44.107Z,1.23
2023-02-20T14:14:47.773Z,1.34
2023-02-20T14:15:54.993Z,1.02
2023-02-20T14:17:10.326Z,1.27
2023-02-20T14:18:18.805Z,1.19
2023-02-20T14:19:26.062Z,0.98
2023-02-20T14:20:36.408Z,1.03
2023-02-20T14:21:38.920Z,1.19
2023-02-20T14:22:43.440Z,1.19
2023-02-20T14:23:46.205Z,1.16
2023-02-20T14:25:03.467Z,1.18
2023-02-20T14:26:19.299Z,1.32
2023-02-20T14:27:28.840Z,1.65
2023-02-20T14:28:35.115Z,2.00
2023-02-20T14:29:38.257Z,2.22
2023-02-20T14:30:44.023Z,1.30
2023-02-20T14:31:52.964Z,1.42
2023-02-20T14:32:57.409Z,1.50
2023-02-20T14:34:03.325Z,1.19
2023-02-20T14:35:24.215Z,1.20
2023-02-20T14:36:40.246Z,1.15
2023-02-20T14:37:56.447Z,0.95
2023-02-20T14:39:17.615Z,1.18
2023-02-20T14:40:30.041Z,0.99
2023-02-20T14:41:32.809Z,1.11
2023-02-20T14:42:41.628Z,1.08
2023-02-20T14:43:44.156Z,1.22
2023-02-20T14:44:50.999Z,1.10
2023-02-20T14:46:03.266Z,1.33
2023-02-20T14:47:10.594Z,1.26
2023-02-20T14:48:25.639Z,1.07
2023-02-20T14:49:31.079Z,1.38
2023-02-20T14:50:36.495Z,1.27
2023-02-20T14:51:38.656Z,1.24
2023-02-20T14:52:41.844Z,1.43
2023-02-20T14:53:57.753Z,1.44